sensor_id;sensor_type;location;lat;lon;timestamp;P1;durP1;ratioP1;P2;durP2;ratioP2
15126;SDS011;7664;52.008;4.748;2023-05-07T00:02:14;13.63;;;9.02;;
15126;SDS011;7664;52.008;4.748;2023-05-07T00:04:44;14.13;;;8.82;;
15126;SDS011;7664;52.008;4.748;2023-05-07T00:07:14;13.93;;;8.90;;
15126;SDS011;7664;52.008;4.748;2023-05-07T00:09:43;12.73;;;8.77;;
15126;SDS011;7664;52.008;4.748;2023-05-07T00:12:11;12.82;;;9.77;;
15126;SDS011;7664;52.008;4.748;2023-05-07T00:14:39;14.13;;;9.05;;
15126;SDS011;7664;52.008;4.748;2023-05-07T00:17:08;11.60;;;8.65;;
15126;SDS011;7664;52.008;4.748;2023-05-07T00:19:36;14.40;;;9.85;;
15126;SDS011;7664;52.008;4.748;2023-05-07T00:22:05;13.43;;;9.82;;
15126;SDS011;7664;52.008;4.748;2023-05-07T00:24:39;16.17;;;10.77;;
15126;SDS011;7664;52.008;4.748;2023-05-07T00:27:07;14.77;;;11.38;;
15126;SDS011;7664;52.008;4.748;2023-05-07T00:29:38;14.48;;;10.07;;
15126;SDS011;7664;52.008;4.748;2023-05-07T00:32:14;13.63;;;9.98;;
15126;SDS011;7664;52.008;4.748;2023-05-07T00:34:44;14.55;;;9.70;;
15126;SDS011;7664;52.008;4.748;2023-05-07T00:37:25;13.25;;;9.77;;
15126;SDS011;7664;52.008;4.748;2023-05-07T00:39:55;13.15;;;10.40;;
15126;SDS011;7664;52.008;4.748;2023-05-07T00:42:23;14.05;;;9.90;;
15126;SDS011;7664;52.008;4.748;2023-05-07T00:44:52;14.02;;;10.70;;
15126;SDS011;7664;52.008;4.748;2023-05-07T00:47:21;13.68;;;9.48;;
15126;SDS011;7664;52.008;4.748;2023-05-07T00:49:50;15.07;;;10.32;;
15126;SDS011;7664;52.008;4.748;2023-05-07T00:52:18;14.25;;;10.88;;
15126;SDS011;7664;52.008;4.748;2023-05-07T00:54:48;14.85;;;11.07;;
15126;SDS011;7664;52.008;4.748;2023-05-07T00:57:24;13.98;;;9.35;;
15126;SDS011;7664;52.008;4.748;2023-05-07T00:59:53;12.52;;;9.75;;
15126;SDS011;7664;52.008;4.748;2023-05-07T01:02:28;14.85;;;10.13;;
15126;SDS011;7664;52.008;4.748;2023-05-07T01:05:04;13.75;;;10.32;;
15126;SDS011;7664;52.008;4.748;2023-05-07T01:07:33;12.38;;;9.52;;
15126;SDS011;7664;52.008;4.748;2023-05-07T01:10:03;14.40;;;10.57;;
15126;SDS011;7664;52.008;4.748;2023-05-07T01:12:34;13.98;;;10.13;;
15126;SDS011;7664;52.008;4.748;2023-05-07T01:15:05;13.82;;;10.43;;
15126;SDS011;7664;52.008;4.748;2023-05-07T01:17:36;14.85;;;11.15;;
15126;SDS011;7664;52.008;4.748;2023-05-07T01:20:07;16.75;;;12.55;;
15126;SDS011;7664;52.008;4.748;2023-05-07T01:22:39;14.85;;;11.38;;
15126;SDS011;7664;52.008;4.748;2023-05-07T01:25:12;17.92;;;12.45;;
15126;SDS011;7664;52.008;4.748;2023-05-07T01:27:46;16.17;;;12.25;;
15126;SDS011;7664;52.008;4.748;2023-05-07T01:30:26;17.58;;;13.25;;
15126;SDS011;7664;52.008;4.748;2023-05-07T01:32:59;14.48;;;10.63;;
15126;SDS011;7664;52.008;4.748;2023-05-07T01:35:29;15.02;;;10.95;;
15126;SDS011;7664;52.008;4.748;2023-05-07T01:38:06;12.98;;;10.48;;
15126;SDS011;7664;52.008;4.748;2023-05-07T01:40:35;15.20;;;11.95;;
15126;SDS011;7664;52.008;4.748;2023-05-07T01:43:04;16.25;;;12.10;;
15126;SDS011;7664;52.008;4.748;2023-05-07T01:45:34;13.75;;;10.55;;
15126;SDS011;7664;52.008;4.748;2023-05-07T01:48:03;14.07;;;9.73;;
15126;SDS011;7664;52.008;4.748;2023-05-07T01:50:31;14.63;;;11.50;;
15126;SDS011;7664;52.008;4.748;2023-05-07T01:53:00;15.38;;;10.80;;
15126;SDS011;7664;52.008;4.748;2023-05-07T01:55:31;13.98;;;9.90;;
15126;SDS011;7664;52.008;4.748;2023-05-07T01:57:59;18.45;;;9.70;;
15126;SDS011;7664;52.008;4.748;2023-05-07T02:00:28;13.75;;;9.75;;
15126;SDS011;7664;52.008;4.748;2023-05-07T02:02:57;13.48;;;10.43;;
15126;SDS011;7664;52.008;4.748;2023-05-07T02:05:37;12.85;;;10.80;;
15126;SDS011;7664;52.008;4.748;2023-05-07T02:08:12;11.25;;;8.88;;
15126;SDS011;7664;52.008;4.748;2023-05-07T02:10:44;13.40;;;9.52;;
15126;SDS011;7664;52.008;4.748;2023-05-07T02:13:12;12.20;;;9.63;;
15126;SDS011;7664;52.008;4.748;2023-05-07T02:15:41;11.13;;;9.07;;
15126;SDS011;7664;52.008;4.748;2023-05-07T02:18:12;11.77;;;9.20;;
15126;SDS011;7664;52.008;4.748;2023-05-07T02:20:43;10.38;;;8.05;;
15126;SDS011;7664;52.008;4.748;2023-05-07T02:23:11;9.38;;;7.85;;
15126;SDS011;7664;52.008;4.748;2023-05-07T02:25:39;11.40;;;8.45;;
15126;SDS011;7664;52.008;4.748;2023-05-07T02:28:09;9.68;;;7.80;;
15126;SDS011;7664;52.008;4.748;2023-05-07T02:31:00;12.57;;;8.52;;
15126;SDS011;7664;52.008;4.748;2023-05-07T02:33:29;10.32;;;8.15;;
15126;SDS011;7664;52.008;4.748;2023-05-07T02:36:04;10.38;;;7.78;;
15126;SDS011;7664;52.008;4.748;2023-05-07T02:38:53;9.68;;;7.72;;
15126;SDS011;7664;52.008;4.748;2023-05-07T02:41:22;10.27;;;7.40;;
15126;SDS011;7664;52.008;4.748;2023-05-07T02:43:56;8.65;;;6.80;;
15126;SDS011;7664;52.008;4.748;2023-05-07T02:46:25;9.98;;;7.40;;
15126;SDS011;7664;52.008;4.748;2023-05-07T02:49:01;8.18;;;7.15;;
15126;SDS011;7664;52.008;4.748;2023-05-07T02:51:29;11.57;;;6.95;;
15126;SDS011;7664;52.008;4.748;2023-05-07T02:54:03;9.27;;;6.95;;
15126;SDS011;7664;52.008;4.748;2023-05-07T02:56:32;9.15;;;7.72;;
15126;SDS011;7664;52.008;4.748;2023-05-07T02:59:04;8.35;;;7.30;;
15126;SDS011;7664;52.008;4.748;2023-05-07T03:01:38;8.23;;;6.53;;
15126;SDS011;7664;52.008;4.748;2023-05-07T03:04:08;6.95;;;6.25;;
15126;SDS011;7664;52.008;4.748;2023-05-07T03:06:37;7.57;;;6.55;;
15126;SDS011;7664;52.008;4.748;2023-05-07T03:09:05;9.35;;;6.82;;
15126;SDS011;7664;52.008;4.748;2023-05-07T03:11:34;8.70;;;6.82;;
15126;SDS011;7664;52.008;4.748;2023-05-07T03:14:06;8.75;;;7.10;;
15126;SDS011;7664;52.008;4.748;2023-05-07T03:16:35;8.27;;;6.65;;
15126;SDS011;7664;52.008;4.748;2023-05-07T03:19:03;7.85;;;6.75;;
15126;SDS011;7664;52.008;4.748;2023-05-07T03:21:34;7.68;;;6.57;;
15126;SDS011;7664;52.008;4.748;2023-05-07T03:24:02;8.13;;;6.35;;
15126;SDS011;7664;52.008;4.748;2023-05-07T03:26:31;9.10;;;7.22;;
15126;SDS011;7664;52.008;4.748;2023-05-07T03:29:02;8.57;;;6.72;;
15126;SDS011;7664;52.008;4.748;2023-05-07T03:31:32;7.93;;;6.97;;
15126;SDS011;7664;52.008;4.748;2023-05-07T03:34:01;7.35;;;6.57;;
15126;SDS011;7664;52.008;4.748;2023-05-07T03:36:29;8.65;;;7.03;;
15126;SDS011;7664;52.008;4.748;2023-05-07T03:38:57;8.02;;;6.53;;
15126;SDS011;7664;52.008;4.748;2023-05-07T03:41:34;10.23;;;7.18;;
15126;SDS011;7664;52.008;4.748;2023-05-07T03:44:03;8.55;;;6.95;;
15126;SDS011;7664;52.008;4.748;2023-05-07T03:46:33;7.47;;;6.43;;
15126;SDS011;7664;52.008;4.748;2023-05-07T03:49:01;8.77;;;7.53;;
15126;SDS011;7664;52.008;4.748;2023-05-07T03:51:30;7.90;;;7.10;;
15126;SDS011;7664;52.008;4.748;2023-05-07T03:53:59;7.50;;;6.70;;
15126;SDS011;7664;52.008;4.748;2023-05-07T03:56:29;8.98;;;6.78;;
15126;SDS011;7664;52.008;4.748;2023-05-07T03:58:59;7.70;;;6.45;;
15126;SDS011;7664;52.008;4.748;2023-05-07T04:01:32;7.93;;;6.57;;
15126;SDS011;7664;52.008;4.748;2023-05-07T04:04:01;10.68;;;7.10;;
15126;SDS011;7664;52.008;4.748;2023-05-07T04:06:41;7.75;;;5.90;;
15126;SDS011;7664;52.008;4.748;2023-05-07T04:09:12;7.10;;;6.38;;
15126;SDS011;7664;52.008;4.748;2023-05-07T04:11:47;10.63;;;6.80;;
15126;SDS011;7664;52.008;4.748;2023-05-07T04:14:16;9.45;;;6.72;;
15126;SDS011;7664;52.008;4.748;2023-05-07T04:16:46;6.68;;;5.97;;
15126;SDS011;7664;52.008;4.748;2023-05-07T04:19:17;8.23;;;6.53;;
15126;SDS011;7664;52.008;4.748;2023-05-07T04:21:49;8.20;;;6.82;;
15126;SDS011;7664;52.008;4.748;2023-05-07T04:24:17;8.52;;;5.93;;
15126;SDS011;7664;52.008;4.748;2023-05-07T04:26:48;8.32;;;6.30;;
15126;SDS011;7664;52.008;4.748;2023-05-07T04:29:19;8.43;;;6.45;;
15126;SDS011;7664;52.008;4.748;2023-05-07T04:31:52;7.70;;;6.57;;
15126;SDS011;7664;52.008;4.748;2023-05-07T04:34:26;7.78;;;6.18;;
15126;SDS011;7664;52.008;4.748;2023-05-07T04:36:58;7.32;;;6.57;;
15126;SDS011;7664;52.008;4.748;2023-05-07T04:39:27;7.93;;;7.13;;
15126;SDS011;7664;52.008;4.748;2023-05-07T04:41:56;8.35;;;6.60;;
15126;SDS011;7664;52.008;4.748;2023-05-07T04:44:25;8.05;;;6.47;;
15126;SDS011;7664;52.008;4.748;2023-05-07T04:46:55;7.07;;;6.30;;
15126;SDS011;7664;52.008;4.748;2023-05-07T04:49:26;7.45;;;6.22;;
15126;SDS011;7664;52.008;4.748;2023-05-07T04:51:56;7.20;;;6.18;;
15126;SDS011;7664;52.008;4.748;2023-05-07T04:54:25;7.70;;;6.30;;
15126;SDS011;7664;52.008;4.748;2023-05-07T04:56:54;6.35;;;5.53;;
15126;SDS011;7664;52.008;4.748;2023-05-07T04:59:25;6.43;;;5.78;;
15126;SDS011;7664;52.008;4.748;2023-05-07T05:01:54;7.45;;;6.05;;
15126;SDS011;7664;52.008;4.748;2023-05-07T05:04:24;10.27;;;6.57;;
15126;SDS011;7664;52.008;4.748;2023-05-07T05:06:53;11.05;;;6.72;;
15126;SDS011;7664;52.008;4.748;2023-05-07T05:09:24;8.40;;;6.50;;
15126;SDS011;7664;52.008;4.748;2023-05-07T05:11:55;9.60;;;6.50;;
15126;SDS011;7664;52.008;4.748;2023-05-07T05:14:23;9.07;;;5.97;;
15126;SDS011;7664;52.008;4.748;2023-05-07T05:16:52;9.32;;;6.95;;
15126;SDS011;7664;52.008;4.748;2023-05-07T05:19:20;8.05;;;6.97;;
15126;SDS011;7664;52.008;4.748;2023-05-07T05:21:50;8.25;;;6.80;;
15126;SDS011;7664;52.008;4.748;2023-05-07T05:24:18;8.60;;;7.03;;
15126;SDS011;7664;52.008;4.748;2023-05-07T05:26:47;10.20;;;7.60;;
15126;SDS011;7664;52.008;4.748;2023-05-07T05:29:18;8.57;;;7.18;;
15126;SDS011;7664;52.008;4.748;2023-05-07T05:31:46;9.10;;;7.13;;
15126;SDS011;7664;52.008;4.748;2023-05-07T05:34:20;10.82;;;8.23;;
15126;SDS011;7664;52.008;4.748;2023-05-07T05:36:50;11.35;;;7.65;;
15126;SDS011;7664;52.008;4.748;2023-05-07T05:39:19;8.32;;;7.38;;
15126;SDS011;7664;52.008;4.748;2023-05-07T05:41:47;11.82;;;8.40;;
15126;SDS011;7664;52.008;4.748;2023-05-07T05:44:16;12.25;;;8.15;;
15126;SDS011;7664;52.008;4.748;2023-05-07T05:46:45;10.27;;;8.50;;
15126;SDS011;7664;52.008;4.748;2023-05-07T05:49:17;11.55;;;7.95;;
15126;SDS011;7664;52.008;4.748;2023-05-07T05:51:54;10.73;;;8.40;;
15126;SDS011;7664;52.008;4.748;2023-05-07T05:54:24;12.35;;;8.52;;
15126;SDS011;7664;52.008;4.748;2023-05-07T05:56:55;12.48;;;8.77;;
15126;SDS011;7664;52.008;4.748;2023-05-07T05:59:26;10.98;;;9.00;;
15126;SDS011;7664;52.008;4.748;2023-05-07T06:01:55;12.05;;;9.23;;
15126;SDS011;7664;52.008;4.748;2023-05-07T06:04:24;10.23;;;7.85;;
15126;SDS011;7664;52.008;4.748;2023-05-07T06:06:54;11.85;;;8.63;;
15126;SDS011;7664;52.008;4.748;2023-05-07T06:09:24;10.25;;;8.75;;
15126;SDS011;7664;52.008;4.748;2023-05-07T06:11:52;11.02;;;9.45;;
15126;SDS011;7664;52.008;4.748;2023-05-07T06:14:21;12.05;;;10.05;;
15126;SDS011;7664;52.008;4.748;2023-05-07T06:16:49;12.13;;;9.48;;
15126;SDS011;7664;52.008;4.748;2023-05-07T06:19:18;12.90;;;10.00;;
15126;SDS011;7664;52.008;4.748;2023-05-07T06:21:53;12.88;;;9.65;;
15126;SDS011;7664;52.008;4.748;2023-05-07T06:24:26;10.73;;;9.00;;
15126;SDS011;7664;52.008;4.748;2023-05-07T06:26:54;14.90;;;9.85;;
15126;SDS011;7664;52.008;4.748;2023-05-07T06:29:26;13.88;;;10.75;;
15126;SDS011;7664;52.008;4.748;2023-05-07T06:32:00;13.30;;;10.27;;
15126;SDS011;7664;52.008;4.748;2023-05-07T06:34:38;14.23;;;10.40;;
15126;SDS011;7664;52.008;4.748;2023-05-07T06:37:10;14.30;;;11.13;;
15126;SDS011;7664;52.008;4.748;2023-05-07T06:39:57;13.60;;;11.35;;
15126;SDS011;7664;52.008;4.748;2023-05-07T06:42:32;12.13;;;10.27;;
15126;SDS011;7664;52.008;4.748;2023-05-07T06:45:18;12.60;;;10.30;;
15126;SDS011;7664;52.008;4.748;2023-05-07T06:47:47;13.85;;;10.90;;
15126;SDS011;7664;52.008;4.748;2023-05-07T06:50:17;11.55;;;9.75;;
15126;SDS011;7664;52.008;4.748;2023-05-07T06:52:50;14.25;;;11.30;;
15126;SDS011;7664;52.008;4.748;2023-05-07T06:55:19;16.23;;;11.52;;
15126;SDS011;7664;52.008;4.748;2023-05-07T06:57:48;12.82;;;10.48;;
15126;SDS011;7664;52.008;4.748;2023-05-07T07:00:21;13.73;;;10.48;;
15126;SDS011;7664;52.008;4.748;2023-05-07T07:02:52;13.45;;;10.75;;
15126;SDS011;7664;52.008;4.748;2023-05-07T07:05:27;12.63;;;9.90;;
15126;SDS011;7664;52.008;4.748;2023-05-07T07:08:03;12.65;;;11.23;;
15126;SDS011;7664;52.008;4.748;2023-05-07T07:10:32;12.32;;;9.13;;
15126;SDS011;7664;52.008;4.748;2023-05-07T07:13:02;13.02;;;10.27;;
15126;SDS011;7664;52.008;4.748;2023-05-07T07:15:31;13.35;;;10.18;;
15126;SDS011;7664;52.008;4.748;2023-05-07T07:17:59;16.67;;;11.55;;
15126;SDS011;7664;52.008;4.748;2023-05-07T07:20:30;13.15;;;10.15;;
15126;SDS011;7664;52.008;4.748;2023-05-07T07:22:59;13.80;;;10.88;;
15126;SDS011;7664;52.008;4.748;2023-05-07T07:25:29;13.68;;;10.82;;
15126;SDS011;7664;52.008;4.748;2023-05-07T07:27:59;13.35;;;11.27;;
15126;SDS011;7664;52.008;4.748;2023-05-07T07:30:28;13.93;;;11.00;;
15126;SDS011;7664;52.008;4.748;2023-05-07T07:32:59;14.73;;;11.45;;
15126;SDS011;7664;52.008;4.748;2023-05-07T07:35:32;15.00;;;11.75;;
15126;SDS011;7664;52.008;4.748;2023-05-07T07:38:03;13.95;;;10.40;;
15126;SDS011;7664;52.008;4.748;2023-05-07T07:40:35;18.60;;;13.45;;
15126;SDS011;7664;52.008;4.748;2023-05-07T07:43:05;14.70;;;11.75;;
15126;SDS011;7664;52.008;4.748;2023-05-07T07:45:36;13.38;;;11.75;;
15126;SDS011;7664;52.008;4.748;2023-05-07T07:48:12;13.80;;;10.48;;
15126;SDS011;7664;52.008;4.748;2023-05-07T07:50:43;16.20;;;11.95;;
15126;SDS011;7664;52.008;4.748;2023-05-07T07:53:16;15.18;;;11.20;;
15126;SDS011;7664;52.008;4.748;2023-05-07T07:55:47;14.30;;;10.88;;
15126;SDS011;7664;52.008;4.748;2023-05-07T07:58:18;12.15;;;10.10;;
15126;SDS011;7664;52.008;4.748;2023-05-07T08:00:48;19.00;;;11.55;;
15126;SDS011;7664;52.008;4.748;2023-05-07T08:03:17;13.90;;;11.55;;
15126;SDS011;7664;52.008;4.748;2023-05-07T08:05:52;14.50;;;12.18;;
15126;SDS011;7664;52.008;4.748;2023-05-07T08:08:21;15.02;;;10.77;;
15126;SDS011;7664;52.008;4.748;2023-05-07T08:10:52;14.57;;;10.32;;
15126;SDS011;7664;52.008;4.748;2023-05-07T08:13:27;12.98;;;10.18;;
15126;SDS011;7664;52.008;4.748;2023-05-07T08:15:58;12.30;;;9.88;;
15126;SDS011;7664;52.008;4.748;2023-05-07T08:18:27;11.00;;;9.02;;
15126;SDS011;7664;52.008;4.748;2023-05-07T08:21:00;11.02;;;9.43;;
15126;SDS011;7664;52.008;4.748;2023-05-07T08:23:30;13.23;;;10.35;;
15126;SDS011;7664;52.008;4.748;2023-05-07T08:26:00;11.13;;;8.55;;
15126;SDS011;7664;52.008;4.748;2023-05-07T08:28:31;11.25;;;7.78;;
15126;SDS011;7664;52.008;4.748;2023-05-07T08:30:59;13.65;;;8.38;;
15126;SDS011;7664;52.008;4.748;2023-05-07T08:33:34;10.25;;;7.70;;
15126;SDS011;7664;52.008;4.748;2023-05-07T08:36:03;15.45;;;8.50;;
15126;SDS011;7664;52.008;4.748;2023-05-07T08:38:32;8.90;;;6.80;;
15126;SDS011;7664;52.008;4.748;2023-05-07T08:41:04;10.48;;;7.55;;
15126;SDS011;7664;52.008;4.748;2023-05-07T08:43:34;9.07;;;6.45;;
15126;SDS011;7664;52.008;4.748;2023-05-07T08:46:04;10.68;;;6.20;;
15126;SDS011;7664;52.008;4.748;2023-05-07T08:48:39;8.75;;;6.45;;
15126;SDS011;7664;52.008;4.748;2023-05-07T08:51:13;9.45;;;6.22;;
15126;SDS011;7664;52.008;4.748;2023-05-07T08:53:42;8.30;;;6.28;;
15126;SDS011;7664;52.008;4.748;2023-05-07T08:56:16;7.50;;;6.32;;
15126;SDS011;7664;52.008;4.748;2023-05-07T08:58:48;7.05;;;5.93;;
15126;SDS011;7664;52.008;4.748;2023-05-07T09:01:16;6.93;;;5.25;;
15126;SDS011;7664;52.008;4.748;2023-05-07T09:03:50;5.38;;;4.57;;
15126;SDS011;7664;52.008;4.748;2023-05-07T09:06:22;8.10;;;5.45;;
15126;SDS011;7664;52.008;4.748;2023-05-07T09:08:51;6.93;;;5.50;;
15126;SDS011;7664;52.008;4.748;2023-05-07T09:11:24;7.50;;;5.03;;
15126;SDS011;7664;52.008;4.748;2023-05-07T09:13:55;6.28;;;4.70;;
15126;SDS011;7664;52.008;4.748;2023-05-07T09:16:25;5.38;;;3.72;;
15126;SDS011;7664;52.008;4.748;2023-05-07T09:18:59;4.63;;;3.38;;
15126;SDS011;7664;52.008;4.748;2023-05-07T09:21:30;7.45;;;4.75;;
15126;SDS011;7664;52.008;4.748;2023-05-07T09:24:01;5.97;;;4.18;;
15126;SDS011;7664;52.008;4.748;2023-05-07T09:26:38;4.97;;;4.25;;
15126;SDS011;7664;52.008;4.748;2023-05-07T09:29:10;4.78;;;3.70;;
15126;SDS011;7664;52.008;4.748;2023-05-07T09:31:39;5.10;;;3.60;;
15126;SDS011;7664;52.008;4.748;2023-05-07T09:34:11;4.97;;;3.40;;
15126;SDS011;7664;52.008;4.748;2023-05-07T09:36:42;4.45;;;3.08;;
15126;SDS011;7664;52.008;4.748;2023-05-07T09:39:11;10.65;;;2.90;;
15126;SDS011;7664;52.008;4.748;2023-05-07T09:41:47;7.53;;;3.60;;
15126;SDS011;7664;52.008;4.748;2023-05-07T09:44:21;6.65;;;4.03;;
15126;SDS011;7664;52.008;4.748;2023-05-07T09:46:55;4.78;;;3.80;;
15126;SDS011;7664;52.008;4.748;2023-05-07T09:49:34;5.93;;;3.53;;
15126;SDS011;7664;52.008;4.748;2023-05-07T09:52:06;6.47;;;3.55;;
15126;SDS011;7664;52.008;4.748;2023-05-07T09:54:42;7.03;;;3.60;;
15126;SDS011;7664;52.008;4.748;2023-05-07T09:57:14;4.35;;;3.38;;
15126;SDS011;7664;52.008;4.748;2023-05-07T09:59:47;5.50;;;3.65;;
15126;SDS011;7664;52.008;4.748;2023-05-07T10:02:19;4.63;;;3.65;;
15126;SDS011;7664;52.008;4.748;2023-05-07T10:04:52;5.07;;;3.55;;
15126;SDS011;7664;52.008;4.748;2023-05-07T10:07:28;3.83;;;2.75;;
15126;SDS011;7664;52.008;4.748;2023-05-07T10:10:06;4.72;;;2.50;;
15126;SDS011;7664;52.008;4.748;2023-05-07T10:12:41;5.70;;;2.88;;
15126;SDS011;7664;52.008;4.748;2023-05-07T10:15:23;3.92;;;2.58;;
15126;SDS011;7664;52.008;4.748;2023-05-07T10:17:54;7.38;;;2.70;;
15126;SDS011;7664;52.008;4.748;2023-05-07T10:20:25;3.92;;;2.40;;
15126;SDS011;7664;52.008;4.748;2023-05-07T10:22:56;5.22;;;2.55;;
15126;SDS011;7664;52.008;4.748;2023-05-07T10:25:33;4.78;;;3.38;;
15126;SDS011;7664;52.008;4.748;2023-05-07T10:28:16;5.38;;;3.58;;
15126;SDS011;7664;52.008;4.748;2023-05-07T10:30:49;5.22;;;2.85;;
15126;SDS011;7664;52.008;4.748;2023-05-07T10:33:25;6.25;;;2.67;;
15126;SDS011;7664;52.008;4.748;2023-05-07T10:36:01;3.72;;;2.50;;
15126;SDS011;7664;52.008;4.748;2023-05-07T10:38:31;3.58;;;2.58;;
15126;SDS011;7664;52.008;4.748;2023-05-07T10:41:00;3.53;;;2.30;;
15126;SDS011;7664;52.008;4.748;2023-05-07T10:43:45;7.25;;;3.30;;
15126;SDS011;7664;52.008;4.748;2023-05-07T10:46:21;4.95;;;2.67;;
15126;SDS011;7664;52.008;4.748;2023-05-07T10:49:07;5.63;;;3.40;;
15126;SDS011;7664;52.008;4.748;2023-05-07T10:51:44;6.22;;;3.20;;
15126;SDS011;7664;52.008;4.748;2023-05-07T10:54:22;10.48;;;4.20;;
15126;SDS011;7664;52.008;4.748;2023-05-07T10:57:01;4.70;;;3.22;;
15126;SDS011;7664;52.008;4.748;2023-05-07T10:59:53;4.30;;;2.63;;
15126;SDS011;7664;52.008;4.748;2023-05-07T11:05:19;3.30;;;2.15;;
15126;SDS011;7664;52.008;4.748;2023-05-07T11:07:59;3.78;;;2.30;;
15126;SDS011;7664;52.008;4.748;2023-05-07T11:10:50;3.33;;;2.42;;
15126;SDS011;7664;52.008;4.748;2023-05-07T11:13:40;3.38;;;2.33;;
15126;SDS011;7664;52.008;4.748;2023-05-07T11:16:36;4.25;;;2.50;;
15126;SDS011;7664;52.008;4.748;2023-05-07T11:22:24;4.40;;;2.33;;
15126;SDS011;7664;52.008;4.748;2023-05-07T11:25:26;4.60;;;2.38;;
15126;SDS011;7664;52.008;4.748;2023-05-07T11:28:05;5.60;;;2.95;;
15126;SDS011;7664;52.008;4.748;2023-05-07T11:30:34;7.13;;;2.90;;
15126;SDS011;7664;52.008;4.748;2023-05-07T11:33:10;4.85;;;2.90;;
15126;SDS011;7664;52.008;4.748;2023-05-07T11:35:41;5.88;;;2.85;;
15126;SDS011;7664;52.008;4.748;2023-05-07T11:38:12;3.65;;;2.97;;
15126;SDS011;7664;52.008;4.748;2023-05-07T11:40:49;4.85;;;2.97;;
15126;SDS011;7664;52.008;4.748;2023-05-07T11:43:20;6.95;;;3.47;;
15126;SDS011;7664;52.008;4.748;2023-05-07T11:45:48;5.53;;;3.30;;
15126;SDS011;7664;52.008;4.748;2023-05-07T11:48:18;4.55;;;3.35;;
15126;SDS011;7664;52.008;4.748;2023-05-07T11:50:50;6.28;;;2.70;;
15126;SDS011;7664;52.008;4.748;2023-05-07T11:53:19;2.78;;;2.45;;
15126;SDS011;7664;52.008;4.748;2023-05-07T11:55:53;5.65;;;3.22;;
15126;SDS011;7664;52.008;4.748;2023-05-07T11:58:23;5.47;;;3.20;;
15126;SDS011;7664;52.008;4.748;2023-05-07T12:00:52;3.47;;;2.90;;
15126;SDS011;7664;52.008;4.748;2023-05-07T12:03:22;8.10;;;3.90;;
15126;SDS011;7664;52.008;4.748;2023-05-07T12:05:50;4.22;;;3.30;;
15126;SDS011;7664;52.008;4.748;2023-05-07T12:08:21;5.43;;;3.53;;
15126;SDS011;7664;52.008;4.748;2023-05-07T12:10:50;5.75;;;3.33;;
15126;SDS011;7664;52.008;4.748;2023-05-07T12:13:21;5.38;;;3.25;;
15126;SDS011;7664;52.008;4.748;2023-05-07T12:15:50;5.35;;;3.40;;
15126;SDS011;7664;52.008;4.748;2023-05-07T12:18:19;6.60;;;3.70;;
15126;SDS011;7664;52.008;4.748;2023-05-07T12:20:49;5.78;;;4.32;;
15126;SDS011;7664;52.008;4.748;2023-05-07T12:23:17;6.88;;;4.90;;
15126;SDS011;7664;52.008;4.748;2023-05-07T12:25:55;5.35;;;4.60;;
15126;SDS011;7664;52.008;4.748;2023-05-07T12:28:24;7.22;;;4.30;;
15126;SDS011;7664;52.008;4.748;2023-05-07T12:30:54;6.47;;;4.47;;
15126;SDS011;7664;52.008;4.748;2023-05-07T12:33:26;7.20;;;5.28;;
15126;SDS011;7664;52.008;4.748;2023-05-07T12:35:58;6.40;;;4.30;;
15126;SDS011;7664;52.008;4.748;2023-05-07T12:38:36;6.15;;;4.45;;
15126;SDS011;7664;52.008;4.748;2023-05-07T12:41:08;6.80;;;4.03;;
15126;SDS011;7664;52.008;4.748;2023-05-07T12:43:38;6.25;;;4.15;;
15126;SDS011;7664;52.008;4.748;2023-05-07T12:46:07;4.88;;;4.03;;
15126;SDS011;7664;52.008;4.748;2023-05-07T12:48:36;5.47;;;4.30;;
15126;SDS011;7664;52.008;4.748;2023-05-07T12:51:06;5.82;;;4.10;;
15126;SDS011;7664;52.008;4.748;2023-05-07T12:53:39;5.03;;;3.80;;
15126;SDS011;7664;52.008;4.748;2023-05-07T12:56:10;7.32;;;4.30;;
15126;SDS011;7664;52.008;4.748;2023-05-07T12:58:38;5.43;;;4.32;;
15126;SDS011;7664;52.008;4.748;2023-05-07T13:01:07;7.13;;;4.18;;
15126;SDS011;7664;52.008;4.748;2023-05-07T13:03:36;4.75;;;3.70;;
15126;SDS011;7664;52.008;4.748;2023-05-07T13:06:07;5.45;;;3.95;;
15126;SDS011;7664;52.008;4.748;2023-05-07T13:08:39;5.07;;;3.70;;
15126;SDS011;7664;52.008;4.748;2023-05-07T13:11:09;8.43;;;4.30;;
15126;SDS011;7664;52.008;4.748;2023-05-07T13:13:38;5.88;;;3.97;;
15126;SDS011;7664;52.008;4.748;2023-05-07T13:16:14;6.72;;;4.30;;
15126;SDS011;7664;52.008;4.748;2023-05-07T13:18:42;7.55;;;4.50;;
15126;SDS011;7664;52.008;4.748;2023-05-07T13:21:13;6.68;;;4.18;;
15126;SDS011;7664;52.008;4.748;2023-05-07T13:23:41;9.98;;;4.05;;
15126;SDS011;7664;52.008;4.748;2023-05-07T13:26:10;6.68;;;4.13;;
15126;SDS011;7664;52.008;4.748;2023-05-07T13:28:52;7.82;;;4.20;;
15126;SDS011;7664;52.008;4.748;2023-05-07T13:31:21;6.93;;;4.10;;
15126;SDS011;7664;52.008;4.748;2023-05-07T13:33:49;5.53;;;4.05;;
15126;SDS011;7664;52.008;4.748;2023-05-07T13:36:20;5.55;;;4.13;;
15126;SDS011;7664;52.008;4.748;2023-05-07T13:38:51;5.45;;;3.72;;
15126;SDS011;7664;52.008;4.748;2023-05-07T13:41:19;7.90;;;3.72;;
15126;SDS011;7664;52.008;4.748;2023-05-07T13:43:47;4.15;;;3.10;;
15126;SDS011;7664;52.008;4.748;2023-05-07T13:46:25;11.80;;;5.22;;
15126;SDS011;7664;52.008;4.748;2023-05-07T13:48:54;9.35;;;4.70;;
15126;SDS011;7664;52.008;4.748;2023-05-07T13:51:26;6.00;;;4.30;;
15126;SDS011;7664;52.008;4.748;2023-05-07T13:54:01;10.13;;;4.70;;
15126;SDS011;7664;52.008;4.748;2023-05-07T13:56:31;4.90;;;3.65;;
15126;SDS011;7664;52.008;4.748;2023-05-07T13:59:00;4.45;;;3.05;;
15126;SDS011;7664;52.008;4.748;2023-05-07T14:01:31;7.50;;;3.63;;
15126;SDS011;7664;52.008;4.748;2023-05-07T14:03:59;4.97;;;3.60;;
15126;SDS011;7664;52.008;4.748;2023-05-07T14:06:29;6.57;;;4.13;;
15126;SDS011;7664;52.008;4.748;2023-05-07T14:09:00;6.53;;;4.07;;
15126;SDS011;7664;52.008;4.748;2023-05-07T14:11:29;5.97;;;4.95;;
15126;SDS011;7664;52.008;4.748;2023-05-07T14:14:04;10.02;;;6.47;;
15126;SDS011;7664;52.008;4.748;2023-05-07T14:16:33;8.65;;;5.20;;
15126;SDS011;7664;52.008;4.748;2023-05-07T14:19:01;8.02;;;5.18;;
15126;SDS011;7664;52.008;4.748;2023-05-07T14:21:36;9.30;;;5.65;;
15126;SDS011;7664;52.008;4.748;2023-05-07T14:24:09;7.53;;;5.13;;
15126;SDS011;7664;52.008;4.748;2023-05-07T14:26:38;6.68;;;5.13;;
15126;SDS011;7664;52.008;4.748;2023-05-07T14:29:07;7.80;;;5.10;;
15126;SDS011;7664;52.008;4.748;2023-05-07T14:31:35;11.25;;;7.28;;
15126;SDS011;7664;52.008;4.748;2023-05-07T14:34:04;8.27;;;6.55;;
15126;SDS011;7664;52.008;4.748;2023-05-07T14:36:32;9.32;;;6.53;;
15126;SDS011;7664;52.008;4.748;2023-05-07T14:39:05;8.52;;;6.05;;
15126;SDS011;7664;52.008;4.748;2023-05-07T14:41:38;8.50;;;6.13;;
15126;SDS011;7664;52.008;4.748;2023-05-07T14:44:06;8.98;;;6.28;;
15126;SDS011;7664;52.008;4.748;2023-05-07T14:46:34;7.40;;;5.60;;
15126;SDS011;7664;52.008;4.748;2023-05-07T14:49:03;9.52;;;6.65;;
15126;SDS011;7664;52.008;4.748;2023-05-07T14:51:32;8.95;;;5.28;;
15126;SDS011;7664;52.008;4.748;2023-05-07T14:54:02;7.72;;;5.45;;
15126;SDS011;7664;52.008;4.748;2023-05-07T14:56:35;6.18;;;4.50;;
15126;SDS011;7664;52.008;4.748;2023-05-07T14:59:04;4.97;;;3.03;;
15126;SDS011;7664;52.008;4.748;2023-05-07T15:01:43;3.80;;;2.30;;
15126;SDS011;7664;52.008;4.748;2023-05-07T15:04:12;5.38;;;2.08;;
15126;SDS011;7664;52.008;4.748;2023-05-07T15:06:41;3.28;;;2.10;;
15126;SDS011;7664;52.008;4.748;2023-05-07T15:09:10;3.78;;;2.30;;
15126;SDS011;7664;52.008;4.748;2023-05-07T15:11:42;4.18;;;2.65;;
15126;SDS011;7664;52.008;4.748;2023-05-07T15:14:11;2.63;;;1.88;;
15126;SDS011;7664;52.008;4.748;2023-05-07T15:16:39;2.28;;;2.08;;
15126;SDS011;7664;52.008;4.748;2023-05-07T15:19:07;3.15;;;2.45;;
15126;SDS011;7664;52.008;4.748;2023-05-07T15:21:38;3.92;;;3.50;;
15126;SDS011;7664;52.008;4.748;2023-05-07T15:24:07;5.45;;;4.65;;
15126;SDS011;7664;52.008;4.748;2023-05-07T15:26:42;9.45;;;5.00;;